Terminal Aerodrome Forecast
Issued by NWS

Home | Current Version | Previous Version | Graphics & Text | Print | Product List | Glossary On
Versions: 1 2 3 4 5 6 7 8 9 10 11 12 13 14 15 16 17 18 19 20 21 22 23 24 25 26
000
FTUS43 KUNR 150500
TAFGCC
TAF
KGCC 150520Z 1506/1606 33015KT P6SM -SN OVC008
     FM150800 33015KT 1SM -SN BR VV005
     FM151800 33012KT P6SM BKN010=

USA.gov is the U.S. government's official web portal to all federal, state and local government web resources and services.